sensor_id;sensor_type;location;lat;lon;timestamp;pressure;altitude;pressure_sealevel;temperature;humidity
59588;BME280;45412;54.472;18.464;2023-04-06T14:27:05;100542.65;;;5.88;50.66
59588;BME280;45412;54.472;18.464;2023-04-06T14:29:54;100544.31;;;5.87;51.66
59588;BME280;45412;54.472;18.464;2023-04-06T14:32:42;100546.99;;;5.78;52.68
59588;BME280;45412;54.472;18.464;2023-04-06T14:35:32;100544.96;;;5.63;53.34
59588;BME280;45412;54.472;18.464;2023-04-06T14:38:20;100545.28;;;5.41;54.06
59588;BME280;45412;54.472;18.464;2023-04-06T14:41:15;100551.55;;;5.17;55.17
59588;BME280;45412;54.472;18.464;2023-04-06T14:44:04;100548.54;;;4.95;56.31
59588;BME280;45412;54.472;18.464;2023-04-06T14:46:53;100548.63;;;4.74;56.91
59588;BME280;45412;54.472;18.464;2023-04-06T14:49:42;100545.53;;;4.57;57.71
59588;BME280;45412;54.472;18.464;2023-04-06T14:52:30;100545.39;;;4.40;58.73
59588;BME280;45412;54.472;18.464;2023-04-06T14:55:19;100546.14;;;4.23;59.63
59588;BME280;45412;54.472;18.464;2023-04-06T14:58:08;100545.60;;;4.07;60.11
59588;BME280;45412;54.472;18.464;2023-04-06T15:00:58;100547.19;;;3.94;61.40
59588;BME280;45412;54.472;18.464;2023-04-06T15:03:47;100549.60;;;3.83;61.85
59588;BME280;45412;54.472;18.464;2023-04-06T15:06:37;100549.58;;;3.71;62.69
59588;BME280;45412;54.472;18.464;2023-04-06T15:09:25;100552.16;;;3.59;62.83
59588;BME280;45412;54.472;18.464;2023-04-06T15:12:13;100549.77;;;3.49;62.74
59588;BME280;45412;54.472;18.464;2023-04-06T15:15:02;100547.70;;;3.43;62.95
59588;BME280;45412;54.472;18.464;2023-04-06T15:17:53;100548.35;;;3.36;63.47
59588;BME280;45412;54.472;18.464;2023-04-06T15:20:41;100546.77;;;3.32;64.08
59588;BME280;45412;54.472;18.464;2023-04-06T15:23:30;100544.30;;;3.28;64.52
59588;BME280;45412;54.472;18.464;2023-04-06T15:26:18;100549.66;;;3.21;65.06
59588;BME280;45412;54.472;18.464;2023-04-06T15:29:06;100546.98;;;3.17;64.99
59588;BME280;45412;54.472;18.464;2023-04-06T15:31:55;100544.20;;;3.12;65.18
59588;BME280;45412;54.472;18.464;2023-04-06T15:34:43;100540.18;;;3.07;65.78
59588;BME280;45412;54.472;18.464;2023-04-06T15:37:31;100537.94;;;2.97;66.66
59588;BME280;45412;54.472;18.464;2023-04-06T15:40:20;100535.57;;;2.86;66.95
59588;BME280;45412;54.472;18.464;2023-04-06T15:43:08;100537.77;;;2.83;67.36
59588;BME280;45412;54.472;18.464;2023-04-06T15:45:57;100533.86;;;2.80;67.44
59588;BME280;45412;54.472;18.464;2023-04-06T15:48:46;100532.33;;;2.79;68.10
59588;BME280;45412;54.472;18.464;2023-04-06T15:51:35;100531.71;;;2.81;68.17
59588;BME280;45412;54.472;18.464;2023-04-06T15:54:24;100524.95;;;2.84;68.47
59588;BME280;45412;54.472;18.464;2023-04-06T15:57:14;100525.48;;;2.89;68.42
59588;BME280;45412;54.472;18.464;2023-04-06T16:00:03;100526.65;;;2.85;68.80
59588;BME280;45412;54.472;18.464;2023-04-06T16:02:56;100514.48;;;2.74;69.18
59588;BME280;45412;54.472;18.464;2023-04-06T16:05:46;100521.98;;;2.74;69.72
59588;BME280;45412;54.472;18.464;2023-04-06T16:08:52;100522.79;;;2.67;69.96
59588;BME280;45412;54.472;18.464;2023-04-06T16:11:40;100518.56;;;2.63;70.41
59588;BME280;45412;54.472;18.464;2023-04-06T16:14:28;100523.98;;;2.59;70.77
59588;BME280;45412;54.472;18.464;2023-04-06T16:17:17;100520.13;;;2.53;71.42
59588;BME280;45412;54.472;18.464;2023-04-06T16:20:06;100523.92;;;2.50;71.53
59588;BME280;45412;54.472;18.464;2023-04-06T16:22:54;100524.38;;;2.48;72.09
59588;BME280;45412;54.472;18.464;2023-04-06T16:25:42;100521.35;;;2.39;72.88
59588;BME280;45412;54.472;18.464;2023-04-06T16:28:32;100525.93;;;2.33;73.00
59588;BME280;45412;54.472;18.464;2023-04-06T16:31:23;100527.25;;;2.31;73.32
59588;BME280;45412;54.472;18.464;2023-04-06T16:34:13;100528.87;;;2.30;74.13
59588;BME280;45412;54.472;18.464;2023-04-06T16:37:01;100527.50;;;2.24;74.44
59588;BME280;45412;54.472;18.464;2023-04-06T16:39:50;100524.38;;;2.23;74.65
59588;BME280;45412;54.472;18.464;2023-04-06T16:42:43;100523.08;;;2.26;74.92
59588;BME280;45412;54.472;18.464;2023-04-06T16:45:32;100521.86;;;2.25;74.76
59588;BME280;45412;54.472;18.464;2023-04-06T16:48:21;100523.00;;;2.23;74.81
59588;BME280;45412;54.472;18.464;2023-04-06T16:51:09;100519.88;;;2.22;74.69
59588;BME280;45412;54.472;18.464;2023-04-06T16:53:58;100519.11;;;2.24;74.99
59588;BME280;45412;54.472;18.464;2023-04-06T16:56:47;100519.64;;;2.24;75.05
59588;BME280;45412;54.472;18.464;2023-04-06T16:59:35;100520.30;;;2.25;74.80
59588;BME280;45412;54.472;18.464;2023-04-06T17:02:24;100516.54;;;2.27;75.13
59588;BME280;45412;54.472;18.464;2023-04-06T17:05:13;100519.02;;;2.22;74.95
59588;BME280;45412;54.472;18.464;2023-04-06T17:08:02;100523.35;;;2.18;75.44
59588;BME280;45412;54.472;18.464;2023-04-06T17:10:50;100528.14;;;2.16;75.31
59588;BME280;45412;54.472;18.464;2023-04-06T17:13:50;100524.34;;;2.14;75.44
59588;BME280;45412;54.472;18.464;2023-04-06T17:16:38;100529.30;;;2.13;76.08
59588;BME280;45412;54.472;18.464;2023-04-06T17:19:26;100529.37;;;2.16;75.60
59588;BME280;45412;54.472;18.464;2023-04-06T17:22:18;100529.34;;;2.16;75.40
59588;BME280;45412;54.472;18.464;2023-04-06T17:25:08;100527.28;;;2.15;75.79
59588;BME280;45412;54.472;18.464;2023-04-06T17:27:56;100528.14;;;2.11;76.19
59588;BME280;45412;54.472;18.464;2023-04-06T17:30:44;100526.17;;;2.07;76.64
59588;BME280;45412;54.472;18.464;2023-04-06T17:33:33;100527.29;;;2.05;76.81
59588;BME280;45412;54.472;18.464;2023-04-06T17:36:22;100526.15;;;2.02;76.90
59588;BME280;45412;54.472;18.464;2023-04-06T17:39:11;100528.10;;;2.02;77.22
59588;BME280;45412;54.472;18.464;2023-04-06T17:41:59;100524.23;;;2.02;77.09
59588;BME280;45412;54.472;18.464;2023-04-06T17:44:51;100524.14;;;2.05;77.00
59588;BME280;45412;54.472;18.464;2023-04-06T17:47:40;100524.44;;;2.07;76.83
59588;BME280;45412;54.472;18.464;2023-04-06T17:50:28;100528.59;;;2.08;77.19
59588;BME280;45412;54.472;18.464;2023-04-06T17:53:17;100525.66;;;2.07;76.81
59588;BME280;45412;54.472;18.464;2023-04-06T17:56:07;100521.52;;;2.05;76.81
59588;BME280;45412;54.472;18.464;2023-04-06T17:58:55;100517.95;;;2.01;76.50
59588;BME280;45412;54.472;18.464;2023-04-06T18:01:44;100518.95;;;1.98;76.08
59588;BME280;45412;54.472;18.464;2023-04-06T18:04:32;100513.67;;;1.99;76.23
59588;BME280;45412;54.472;18.464;2023-04-06T18:07:22;100519.90;;;2.01;76.31
59588;BME280;45412;54.472;18.464;2023-04-06T18:10:11;100521.30;;;2.01;76.29
59588;BME280;45412;54.472;18.464;2023-04-06T18:12:59;100523.86;;;2.02;76.39
59588;BME280;45412;54.472;18.464;2023-04-06T18:15:48;100523.25;;;2.00;76.02
59588;BME280;45412;54.472;18.464;2023-04-06T18:18:36;100523.55;;;1.97;75.23
59588;BME280;45412;54.472;18.464;2023-04-06T18:21:26;100523.34;;;1.93;75.12
59588;BME280;45412;54.472;18.464;2023-04-06T18:24:15;100524.23;;;1.87;75.38
59588;BME280;45412;54.472;18.464;2023-04-06T18:27:19;100520.77;;;1.81;75.68
59588;BME280;45412;54.472;18.464;2023-04-06T18:30:09;100520.23;;;1.81;75.82
59588;BME280;45412;54.472;18.464;2023-04-06T18:32:59;100520.37;;;1.82;75.37
59588;BME280;45412;54.472;18.464;2023-04-06T18:35:48;100520.84;;;1.84;75.58
59588;BME280;45412;54.472;18.464;2023-04-06T18:38:44;100524.27;;;1.86;75.63
59588;BME280;45412;54.472;18.464;2023-04-06T18:41:35;100522.52;;;1.86;75.35
59588;BME280;45412;54.472;18.464;2023-04-06T18:44:25;100519.70;;;1.86;75.54
59588;BME280;45412;54.472;18.464;2023-04-06T18:47:13;100520.22;;;1.87;75.52
59588;BME280;45412;54.472;18.464;2023-04-06T18:50:02;100515.41;;;1.84;75.77
59588;BME280;45412;54.472;18.464;2023-04-06T18:52:51;100519.91;;;1.80;76.04
59588;BME280;45412;54.472;18.464;2023-04-06T18:55:40;100519.35;;;1.87;77.12
59588;BME280;45412;54.472;18.464;2023-04-06T18:58:32;100521.17;;;1.95;76.67
59588;BME280;45412;54.472;18.464;2023-04-06T19:01:27;100521.64;;;1.97;75.77
59588;BME280;45412;54.472;18.464;2023-04-06T19:04:16;100518.86;;;1.96;75.76
59588;BME280;45412;54.472;18.464;2023-04-06T19:07:05;100515.23;;;1.95;76.14
59588;BME280;45412;54.472;18.464;2023-04-06T19:09:53;100516.45;;;1.95;76.48
59588;BME280;45412;54.472;18.464;2023-04-06T19:12:41;100516.33;;;1.93;76.52
59588;BME280;45412;54.472;18.464;2023-04-06T19:15:30;100515.36;;;1.91;76.75
59588;BME280;45412;54.472;18.464;2023-04-06T19:18:19;100512.52;;;1.92;77.10
59588;BME280;45412;54.472;18.464;2023-04-06T19:21:20;100506.31;;;1.89;77.16
59588;BME280;45412;54.472;18.464;2023-04-06T19:24:10;100513.42;;;1.92;77.88
59588;BME280;45412;54.472;18.464;2023-04-06T19:27:04;100520.59;;;1.92;77.96
59588;BME280;45412;54.472;18.464;2023-04-06T19:29:52;100516.72;;;1.92;78.65
59588;BME280;45412;54.472;18.464;2023-04-06T19:32:40;100517.49;;;1.90;79.09
59588;BME280;45412;54.472;18.464;2023-04-06T19:35:29;100514.73;;;1.83;80.02
59588;BME280;45412;54.472;18.464;2023-04-06T19:38:17;100517.85;;;1.84;80.03
59588;BME280;45412;54.472;18.464;2023-04-06T19:41:07;100510.42;;;1.87;80.08
59588;BME280;45412;54.472;18.464;2023-04-06T19:43:55;100510.56;;;1.88;80.23
59588;BME280;45412;54.472;18.464;2023-04-06T19:46:43;100511.03;;;1.90;80.35
59588;BME280;45412;54.472;18.464;2023-04-06T19:49:33;100510.89;;;1.89;81.09
59588;BME280;45412;54.472;18.464;2023-04-06T19:52:21;100509.17;;;1.88;81.01
59588;BME280;45412;54.472;18.464;2023-04-06T19:55:10;100508.70;;;1.86;81.64
59588;BME280;45412;54.472;18.464;2023-04-06T19:58:01;100508.80;;;1.83;81.65
59588;BME280;45412;54.472;18.464;2023-04-06T20:00:48;100511.35;;;1.85;81.91
59588;BME280;45412;54.472;18.464;2023-04-06T20:03:37;100509.16;;;1.88;82.14
59588;BME280;45412;54.472;18.464;2023-04-06T20:06:25;100505.58;;;1.90;82.07
59588;BME280;45412;54.472;18.464;2023-04-06T20:09:13;100507.15;;;1.90;82.52
59588;BME280;45412;54.472;18.464;2023-04-06T20:12:03;100501.30;;;1.93;82.84
59588;BME280;45412;54.472;18.464;2023-04-06T20:14:56;100504.75;;;1.94;83.31
59588;BME280;45412;54.472;18.464;2023-04-06T20:17:44;100502.03;;;1.92;83.83
59588;BME280;45412;54.472;18.464;2023-04-06T20:20:32;100504.18;;;1.90;84.11
59588;BME280;45412;54.472;18.464;2023-04-06T20:23:21;100501.11;;;1.88;84.55
59588;BME280;45412;54.472;18.464;2023-04-06T20:26:09;100500.65;;;1.86;85.63
59588;BME280;45412;54.472;18.464;2023-04-06T20:28:59;100498.36;;;1.86;85.41
59588;BME280;45412;54.472;18.464;2023-04-06T20:31:48;100494.34;;;1.86;85.97
59588;BME280;45412;54.472;18.464;2023-04-06T20:34:36;100492.95;;;1.86;86.12
59588;BME280;45412;54.472;18.464;2023-04-06T20:37:24;100491.70;;;1.86;86.09
59588;BME280;45412;54.472;18.464;2023-04-06T20:40:12;100486.08;;;1.88;87.01
59588;BME280;45412;54.472;18.464;2023-04-06T20:43:00;100488.50;;;1.89;87.11
59588;BME280;45412;54.472;18.464;2023-04-06T20:45:51;100483.77;;;1.88;87.38
59588;BME280;45412;54.472;18.464;2023-04-06T20:48:40;100480.91;;;1.90;87.44
59588;BME280;45412;54.472;18.464;2023-04-06T20:51:29;100481.52;;;1.93;87.71
59588;BME280;45412;54.472;18.464;2023-04-06T20:54:19;100481.48;;;1.93;87.99
59588;BME280;45412;54.472;18.464;2023-04-06T20:57:08;100480.60;;;1.94;88.36
59588;BME280;45412;54.472;18.464;2023-04-06T20:59:56;100479.89;;;1.94;88.98
59588;BME280;45412;54.472;18.464;2023-04-06T21:02:44;100477.91;;;1.96;89.33
59588;BME280;45412;54.472;18.464;2023-04-06T21:05:33;100475.11;;;2.00;89.15
59588;BME280;45412;54.472;18.464;2023-04-06T21:08:23;100476.50;;;2.06;89.26
59588;BME280;45412;54.472;18.464;2023-04-06T21:11:11;100476.56;;;2.10;89.85
59588;BME280;45412;54.472;18.464;2023-04-06T21:14:00;100481.32;;;2.13;90.01
59588;BME280;45412;54.472;18.464;2023-04-06T21:16:48;100477.10;;;2.14;90.62
59588;BME280;45412;54.472;18.464;2023-04-06T21:19:36;100470.77;;;2.14;90.87
59588;BME280;45412;54.472;18.464;2023-04-06T21:22:24;100466.90;;;2.15;91.28
59588;BME280;45412;54.472;18.464;2023-04-06T21:25:12;100462.05;;;2.14;91.44
59588;BME280;45412;54.472;18.464;2023-04-06T21:28:01;100460.52;;;2.17;91.36
59588;BME280;45412;54.472;18.464;2023-04-06T21:30:50;100454.89;;;2.18;92.50
59588;BME280;45412;54.472;18.464;2023-04-06T21:33:38;100453.62;;;2.19;92.39
59588;BME280;45412;54.472;18.464;2023-04-06T21:36:28;100448.51;;;2.15;93.82
59588;BME280;45412;54.472;18.464;2023-04-06T21:39:16;100450.39;;;2.12;94.02
59588;BME280;45412;54.472;18.464;2023-04-06T21:42:04;100451.11;;;2.11;94.17
59588;BME280;45412;54.472;18.464;2023-04-06T21:44:52;100446.52;;;2.12;94.32
59588;BME280;45412;54.472;18.464;2023-04-06T21:47:40;100451.71;;;2.14;94.85
59588;BME280;45412;54.472;18.464;2023-04-06T21:50:30;100453.19;;;2.16;94.63
59588;BME280;45412;54.472;18.464;2023-04-06T21:53:19;100446.66;;;2.18;95.00
59588;BME280;45412;54.472;18.464;2023-04-06T21:56:08;100445.72;;;2.15;96.01
59588;BME280;45412;54.472;18.464;2023-04-06T21:59:00;100445.25;;;2.14;95.91
59588;BME280;45412;54.472;18.464;2023-04-06T22:01:49;100444.25;;;2.12;96.18
59588;BME280;45412;54.472;18.464;2023-04-06T22:04:37;100443.30;;;2.14;95.85
59588;BME280;45412;54.472;18.464;2023-04-06T22:07:25;100441.50;;;2.15;96.47
59588;BME280;45412;54.472;18.464;2023-04-06T22:10:15;100441.02;;;2.19;95.76
59588;BME280;45412;54.472;18.464;2023-04-06T22:13:03;100447.70;;;2.23;96.18
59588;BME280;45412;54.472;18.464;2023-04-06T22:15:51;100443.61;;;2.25;95.96
59588;BME280;45412;54.472;18.464;2023-04-06T22:18:41;100441.80;;;2.26;95.81
59588;BME280;45412;54.472;18.464;2023-04-06T22:21:29;100439.73;;;2.30;96.42
59588;BME280;45412;54.472;18.464;2023-04-06T22:24:18;100438.46;;;2.31;95.97
59588;BME280;45412;54.472;18.464;2023-04-06T22:27:06;100435.60;;;2.33;96.20
59588;BME280;45412;54.472;18.464;2023-04-06T22:29:54;100429.35;;;2.31;97.00
59588;BME280;45412;54.472;18.464;2023-04-06T22:32:43;100425.89;;;2.30;97.41
59588;BME280;45412;54.472;18.464;2023-04-06T22:35:31;100425.18;;;2.30;97.13
59588;BME280;45412;54.472;18.464;2023-04-06T22:38:19;100420.09;;;2.31;98.36
59588;BME280;45412;54.472;18.464;2023-04-06T22:41:07;100413.48;;;2.29;98.55
59588;BME280;45412;54.472;18.464;2023-04-06T22:43:55;100415.58;;;2.30;98.60
59588;BME280;45412;54.472;18.464;2023-04-06T22:46:44;100413.27;;;2.31;98.90
59588;BME280;45412;54.472;18.464;2023-04-06T22:49:32;100408.15;;;2.32;99.05
59588;BME280;45412;54.472;18.464;2023-04-06T22:52:24;100406.42;;;2.31;99.90
59588;BME280;45412;54.472;18.464;2023-04-06T22:55:12;100404.80;;;2.32;99.34
59588;BME280;45412;54.472;18.464;2023-04-06T22:58:05;100394.71;;;2.30;99.97
59588;BME280;45412;54.472;18.464;2023-04-06T23:00:52;100393.21;;;2.29;99.96
59588;BME280;45412;54.472;18.464;2023-04-06T23:03:41;100392.88;;;2.28;99.99
59588;BME280;45412;54.472;18.464;2023-04-06T23:06:29;100390.88;;;2.30;99.98
59588;BME280;45412;54.472;18.464;2023-04-06T23:09:17;100390.67;;;2.31;100.00
59588;BME280;45412;54.472;18.464;2023-04-06T23:12:05;100394.70;;;2.31;100.00
59588;BME280;45412;54.472;18.464;2023-04-06T23:14:54;100391.19;;;2.31;100.00
59588;BME280;45412;54.472;18.464;2023-04-06T23:17:42;100389.48;;;2.30;100.00
59588;BME280;45412;54.472;18.464;2023-04-06T23:20:30;100381.60;;;2.30;100.00
59588;BME280;45412;54.472;18.464;2023-04-06T23:23:19;100378.28;;;2.29;100.00
59588;BME280;45412;54.472;18.464;2023-04-06T23:26:07;100380.08;;;2.28;100.00
59588;BME280;45412;54.472;18.464;2023-04-06T23:28:55;100373.27;;;2.28;100.00
59588;BME280;45412;54.472;18.464;2023-04-06T23:31:43;100370.98;;;2.29;100.00
59588;BME280;45412;54.472;18.464;2023-04-06T23:34:31;100367.98;;;2.29;100.00
59588;BME280;45412;54.472;18.464;2023-04-06T23:37:19;100363.91;;;2.30;100.00
59588;BME280;45412;54.472;18.464;2023-04-06T23:40:07;100362.26;;;2.32;100.00
59588;BME280;45412;54.472;18.464;2023-04-06T23:42:55;100357.09;;;2.34;100.00
59588;BME280;45412;54.472;18.464;2023-04-06T23:45:44;100355.42;;;2.37;100.00
59588;BME280;45412;54.472;18.464;2023-04-06T23:48:32;100350.66;;;2.37;100.00
59588;BME280;45412;54.472;18.464;2023-04-06T23:51:20;100352.71;;;2.39;100.00
59588;BME280;45412;54.472;18.464;2023-04-06T23:54:08;100351.54;;;2.38;100.00
59588;BME280;45412;54.472;18.464;2023-04-06T23:56:56;100353.05;;;2.39;100.00
59588;BME280;45412;54.472;18.464;2023-04-06T23:59:45;100354.81;;;2.43;100.00
